Time;durP1;ratioP1;P1;durP2;ratioP2;P2;SDS_P1;SDS_P2;PMS_P1;PMS_P2;Temp;Humidity;BMP_temperature;BMP_pressure;BME280_temperature;BME280_humidity;BME280_pressure;Samples;Min_cycle;Max_cycle;Signal;HPM_P1;HPM_P2
2023/03/19 00:00:10;;;;;;;3.23;3.03;;;;;;;10.86;97.84;99934.94;4932044;28;21066;-50
2023/03/19 00:02:36;;;;;;;7.90;3.57;;;;;;;10.87;98.00;99936.69;4932329;28;20515;-50
2023/03/19 00:05:04;;;;;;;3.00;2.27;;;;;;;10.85;97.80;99943.00;4932284;28;20505;-50
2023/03/19 00:07:30;;;;;;;3.60;3.30;;;;;;;10.83;97.93;99935.06;4910354;28;20454;-51
2023/03/19 00:09:57;;;;;;;1.93;1.63;;;;;;;10.83;98.13;99929.75;4929077;29;20476;-51
2023/03/19 00:12:23;;;;;;;3.77;2.03;;;;;;;10.73;99.17;99928.34;4930460;29;20499;-51
2023/03/19 00:14:50;;;;;;;1.53;1.43;;;;;;;10.78;98.91;99934.34;4932095;29;20805;-50
2023/03/19 00:17:17;;;;;;;1.93;1.50;;;;;;;10.74;98.99;99930.06;4932068;28;20495;-50
2023/03/19 00:19:44;;;;;;;4.70;1.50;;;;;;;10.65;100.00;99925.94;4926071;28;20476;-50
2023/03/19 00:22:10;;;;;;;0.90;0.90;;;;;;;10.88;99.31;99925.13;4932118;29;20470;-50
2023/03/19 00:24:37;;;;;;;1.80;1.70;;;;;;;10.72;99.57;99931.91;4931862;28;20456;-51
2023/03/19 00:27:03;;;;;;;1.97;1.17;;;;;;;10.57;100.00;99940.41;4932050;28;20967;-50
2023/03/19 00:29:30;;;;;;;3.00;1.63;;;;;;;10.51;100.00;99932.63;4931946;29;20532;-50
2023/03/19 00:31:56;;;;;;;2.47;2.37;;;;;;;10.51;100.00;99929.97;4931949;29;20846;-50
2023/03/19 00:34:23;;;;;;;1.10;0.90;;;;;;;10.56;100.00;99936.91;4927568;28;20460;-50
2023/03/19 00:36:49;;;;;;;1.23;1.13;;;;;;;10.52;100.00;99937.91;4931838;28;20824;-50
2023/03/19 00:39:16;;;;;;;2.30;1.90;;;;;;;10.57;100.00;99938.63;4931423;28;20482;-50
2023/03/19 00:41:49;;;;;;;5.23;0.60;;;;;;;10.53;100.00;99942.28;4925209;28;20514;-50
2023/03/19 00:44:19;;;;;;;10.13;2.27;;;;;;;10.60;100.00;99935.00;4931767;29;20502;-50
2023/03/19 00:46:46;;;;;;;0.90;0.90;;;;;;;10.71;99.90;99946.13;4931898;28;20506;-50
2023/03/19 00:49:12;;;;;;;2.43;1.77;;;;;;;10.80;99.88;99944.91;4931442;29;20575;-50
2023/03/19 00:51:42;;;;;;;1.60;1.50;;;;;;;10.67;99.60;99939.16;4930238;29;20498;-50
2023/03/19 00:54:11;;;;;;;1.90;1.60;;;;;;;10.58;100.00;99939.50;4931819;29;20862;-50
2023/03/19 00:56:38;;;;;;;1.10;1.10;;;;;;;10.52;100.00;99934.38;4925667;28;20479;-50
2023/03/19 00:59:05;;;;;;;1.33;1.23;;;;;;;10.47;100.00;99934.53;4931573;28;20918;-50
2023/03/19 01:01:32;;;;;;;0.90;0.90;;;;;;;10.34;100.00;99936.75;4927110;29;20845;-51
2023/03/19 01:03:58;;;;;;;2.67;2.40;;;;;;;10.43;100.00;99927.59;4934395;28;20452;-50
2023/03/19 01:06:25;;;;;;;1.50;1.40;;;;;;;10.51;100.00;99924.66;4923915;28;20457;-50
2023/03/19 01:08:51;;;;;;;2.63;1.60;;;;;;;10.50;100.00;99914.97;4932772;28;20483;-50
2023/03/19 01:11:17;;;;;;;2.63;2.43;;;;;;;10.49;100.00;99919.41;4931651;28;20492;-50
2023/03/19 01:13:44;;;;;;;2.00;1.90;;;;;;;10.53;100.00;99914.84;4932763;29;20799;-50
2023/03/19 01:16:11;;;;;;;11.30;3.17;;;;;;;10.51;100.00;99909.59;4929545;29;20457;-50
2023/03/19 01:18:37;;;;;;;1.70;1.60;;;;;;;10.55;100.00;99921.88;4920086;29;20452;-50
2023/03/19 01:21:05;;;;;;;2.27;2.17;;;;;;;10.55;100.00;99921.88;4934558;29;20456;-50
2023/03/19 01:23:31;;;;;;;2.00;1.90;;;;;;;10.54;100.00;99927.22;4934658;28;20543;-50
2023/03/19 01:25:58;;;;;;;2.50;2.30;;;;;;;10.58;100.00;99932.38;4932755;28;20531;-51
2023/03/19 01:28:24;;;;;;;1.83;1.43;;;;;;;10.67;100.00;99937.38;4933316;29;20579;-50
2023/03/19 01:30:51;;;;;;;2.23;2.03;;;;;;;10.62;100.00;99938.47;4926911;29;20555;-50
2023/03/19 01:33:19;;;;;;;2.43;2.10;;;;;;;10.62;100.00;99939.31;4934051;29;20487;-50
2023/03/19 01:35:49;;;;;;;3.10;2.40;;;;;;;10.48;100.00;99938.94;4934590;29;20457;-50
2023/03/19 01:38:16;;;;;;;1.93;1.70;;;;;;;10.65;100.00;99941.88;4934318;28;20475;-50
2023/03/19 01:40:46;;;;;;;2.70;2.60;;;;;;;10.52;100.00;99942.34;4934276;28;20476;-50
2023/03/19 01:43:17;;;;;;;3.17;2.87;;;;;;;10.61;100.00;99944.69;4909952;28;20451;-51
2023/03/19 01:45:45;;;;;;;5.93;4.33;;;;;;;10.56;100.00;99939.56;4928544;28;20456;-50
2023/03/19 01:48:21;;;;;;;18.33;2.90;;;;;;;10.55;100.00;99944.88;4934117;28;20460;-50
2023/03/19 01:50:49;;;;;;;9.97;3.70;;;;;;;10.56;100.00;99954.63;4933963;29;21086;-51
2023/03/19 01:53:18;;;;;;;1.50;1.40;;;;;;;10.53;100.00;99939.63;4934141;29;20496;-50
2023/03/19 01:55:46;;;;;;;15.77;3.07;;;;;;;10.41;100.00;99941.84;4933938;28;20460;-51
2023/03/19 01:58:12;;;;;;;2.60;1.67;;;;;;;10.30;100.00;99940.44;4926094;28;20565;-51
2023/03/19 02:00:39;;;;;;;3.03;2.83;;;;;;;10.16;100.00;99939.09;4933602;28;20538;-50
2023/03/19 02:03:06;;;;;;;3.13;2.30;;;;;;;10.17;100.00;99931.09;4934106;28;20466;-50
2023/03/19 02:05:35;;;;;;;2.70;2.50;;;;;;;10.22;100.00;99931.81;4928973;28;20445;-50
2023/03/19 02:08:05;;;;;;;1.93;1.83;;;;;;;10.18;100.00;99935.47;4925709;28;20502;-50
2023/03/19 02:10:32;;;;;;;31.23;4.60;;;;;;;10.16;100.00;99937.31;4920983;28;20551;-50
2023/03/19 02:12:59;;;;;;;2.00;1.90;;;;;;;10.18;100.00;99942.59;4928636;28;20518;-50
2023/03/19 02:15:26;;;;;;;1.50;1.40;;;;;;;10.10;100.00;99935.72;4932958;28;20456;-50
2023/03/19 02:17:53;;;;;;;1.90;1.80;;;;;;;10.16;100.00;99939.97;4933900;28;20535;-50
2023/03/19 02:20:33;;;;;;;2.00;1.60;;;;;;;10.13;100.00;99940.06;4933582;29;20515;-51
2023/03/19 02:23:20;;;;;;;7.73;1.93;;;;;;;10.02;100.00;99945.72;4928100;28;20462;-50
2023/03/19 02:25:46;;;;;;;3.00;2.10;;;;;;;9.99;100.00;99948.47;4926428;29;20555;-50
2023/03/19 02:28:18;;;;;;;1.70;1.57;;;;;;;9.95;100.00;99948.63;4933430;28;20487;-50
2023/03/19 02:30:45;;;;;;;1.93;1.83;;;;;;;10.03;100.00;99942.16;4933685;29;20562;-50
2023/03/19 02:33:14;;;;;;;1.30;1.23;;;;;;;9.94;100.00;99949.53;4930616;28;21016;-51
2023/03/19 02:35:41;;;;;;;2.10;1.63;;;;;;;10.07;100.00;99959.72;4926093;28;20456;-50
2023/03/19 02:38:10;;;;;;;1.60;1.50;;;;;;;9.91;100.00;99955.81;4933224;28;20993;-50
2023/03/19 02:40:50;;;;;;;1.80;1.70;;;;;;;9.72;100.00;99958.16;4933542;29;20894;-50
2023/03/19 02:43:19;;;;;;;4.07;2.03;;;;;;;9.73;100.00;99959.03;4910461;28;20448;-51
2023/03/19 02:45:45;;;;;;;2.27;2.07;;;;;;;9.57;100.00;99958.63;4933278;28;20467;-50
2023/03/19 02:48:12;;;;;;;1.97;1.87;;;;;;;9.47;100.00;99946.56;4928756;29;20531;-50
2023/03/19 02:50:38;;;;;;;2.07;1.50;;;;;;;9.54;100.00;99953.41;4928558;28;20483;-50
2023/03/19 02:53:05;;;;;;;1.47;1.37;;;;;;;9.45;100.00;99951.88;4925952;28;20898;-50
2023/03/19 02:55:32;;;;;;;4.63;2.33;;;;;;;9.44;100.00;99951.94;4920736;28;20457;-50
2023/03/19 02:57:58;;;;;;;4.10;1.83;;;;;;;9.58;100.00;99954.19;4933083;29;20954;-50
2023/03/19 03:00:25;;;;;;;2.83;1.93;;;;;;;9.61;100.00;99954.97;4932839;28;20488;-50
2023/03/19 03:02:51;;;;;;;4.27;2.63;;;;;;;9.65;100.00;99959.28;4932975;28;20448;-50
2023/03/19 03:05:18;;;;;;;1.27;1.17;;;;;;;9.55;100.00;99957.78;4930909;29;20988;-50
2023/03/19 03:07:44;;;;;;;4.03;1.47;;;;;;;9.70;100.00;99952.03;4922231;29;20460;-50
2023/03/19 03:10:11;;;;;;;1.60;1.40;;;;;;;9.79;100.00;99949.09;4932938;28;20472;-50
2023/03/19 03:12:37;;;;;;;8.60;1.43;;;;;;;9.69;100.00;99955.59;4919445;29;20489;-50
2023/03/19 03:15:05;;;;;;;1.00;0.90;;;;;;;9.68;100.00;99959.16;4928854;28;20456;-50
2023/03/19 03:17:32;;;;;;;1.43;1.33;;;;;;;9.69;100.00;99958.25;4932731;29;20452;-50
2023/03/19 03:19:58;;;;;;;2.90;2.17;;;;;;;9.47;100.00;99955.38;4925057;28;20488;-50
2023/03/19 03:22:25;;;;;;;3.27;1.30;;;;;;;9.38;100.00;99960.94;4932961;28;20448;-50
2023/03/19 03:24:51;;;;;;;0.93;0.93;;;;;;;9.04;100.00;99958.38;4925939;29;20456;-50
2023/03/19 03:27:17;;;;;;;2.63;2.43;;;;;;;9.21;100.00;99952.63;4932667;29;20945;-50
2023/03/19 03:29:44;;;;;;;1.00;0.90;;;;;;;8.89;100.00;99964.97;4932424;29;20989;-50
2023/03/19 03:32:10;;;;;;;5.40;1.07;;;;;;;8.92;100.00;99958.72;4924160;28;20495;-50
2023/03/19 03:34:37;;;;;;;1.30;1.20;;;;;;;8.93;100.00;99963.13;4932653;29;20462;-50
2023/03/19 03:37:04;;;;;;;1.20;0.97;;;;;;;8.82;100.00;99962.53;4932734;28;20969;-50
2023/03/19 03:39:30;;;;;;;2.20;1.80;;;;;;;8.69;100.00;99958.47;4932531;29;20542;-50
2023/03/19 03:41:56;;;;;;;1.60;1.27;;;;;;;8.79;100.00;99954.66;4932661;29;20463;-50
2023/03/19 03:44:23;;;;;;;1.10;1.00;;;;;;;8.41;100.00;99968.91;4932353;29;20837;-50
2023/03/19 03:46:49;;;;;;;2.70;1.90;;;;;;;8.39;100.00;99976.88;4925676;28;20891;-50
2023/03/19 03:49:15;;;;;;;0.80;0.60;;;;;;;8.08;100.00;99971.41;4932491;28;20897;-50
2023/03/19 03:51:42;;;;;;;2.43;1.67;;;;;;;8.01;100.00;99973.34;4932453;29;20452;-50
2023/03/19 03:54:08;;;;;;;0.90;0.90;;;;;;;8.02;100.00;99972.44;4932375;29;20946;-50
2023/03/19 03:56:35;;;;;;;0.80;0.80;;;;;;;7.94;100.00;99974.38;4932213;29;20949;-50
2023/03/19 03:59:02;;;;;;;1.43;0.70;;;;;;;7.83;100.00;99975.56;4928246;29;20513;-50
2023/03/19 04:01:29;;;;;;;0.83;0.80;;;;;;;7.92;100.00;99977.97;4932157;28;20550;-50
2023/03/19 04:03:56;;;;;;;1.30;0.90;;;;;;;7.75;100.00;99985.41;4931151;28;20448;-50
2023/03/19 04:06:24;;;;;;;0.67;0.53;;;;;;;7.70;100.00;99981.13;4921918;28;20875;-50
2023/03/19 04:08:50;;;;;;;4.37;1.53;;;;;;;7.68;100.00;99992.63;4930154;28;21056;-50
2023/03/19 04:11:17;;;;;;;0.80;0.70;;;;;;;7.60;100.00;99989.28;4929125;28;20500;-50
2023/03/19 04:13:43;;;;;;;0.60;0.57;;;;;;;7.59;100.00;99988.41;4923143;28;20502;-50
2023/03/19 04:16:10;;;;;;;5.70;2.07;;;;;;;7.37;100.00;99998.53;4932318;29;20471;-50
2023/03/19 04:18:37;;;;;;;0.60;0.60;;;;;;;7.25;100.00;99995.28;4931811;28;20457;-50
2023/03/19 04:21:05;;;;;;;2.70;0.80;;;;;;;7.24;100.00;99989.09;4932012;29;20967;-50
2023/03/19 04:23:32;;;;;;;1.03;1.03;;;;;;;7.31;100.00;100003.97;4931891;29;20456;-50
2023/03/19 04:26:00;;;;;;;0.57;0.50;;;;;;;7.25;100.00;100001.44;4932057;29;20462;-50
2023/03/19 04:28:28;;;;;;;4.20;1.37;;;;;;;7.28;100.00;99997.88;4925575;28;20457;-50
2023/03/19 04:30:59;;;;;;;3.73;1.17;;;;;;;7.09;100.00;100000.00;4932177;28;20521;-50
2023/03/19 04:33:25;;;;;;;2.40;0.83;;;;;;;7.19;100.00;100001.56;4931663;28;20492;-50
2023/03/19 04:35:53;;;;;;;1.27;1.17;;;;;;;7.04;100.00;99996.56;4931855;28;20817;-50
2023/03/19 04:38:20;;;;;;;2.07;1.43;;;;;;;7.09;100.00;99992.06;4933763;28;20952;-50
2023/03/19 04:40:48;;;;;;;0.57;0.50;;;;;;;7.01;100.00;99989.59;4927466;29;20552;-51
2023/03/19 04:43:14;;;;;;;0.50;0.50;;;;;;;7.24;100.00;99986.47;4935382;29;20444;-51
2023/03/19 04:45:41;;;;;;;2.00;0.63;;;;;;;7.09;100.00;99990.28;4934937;29;20968;-50
2023/03/19 04:48:07;;;;;;;1.60;1.17;;;;;;;7.30;100.00;99996.06;4924054;28;20469;-50
2023/03/19 04:50:34;;;;;;;1.30;0.47;;;;;;;7.30;100.00;99996.94;4928700;28;20480;-51
2023/03/19 04:53:01;;;;;;;6.83;3.17;;;;;;;7.34;100.00;100003.03;4934956;29;20566;-51
2023/03/19 04:55:27;;;;;;;0.50;0.47;;;;;;;7.48;100.00;100005.38;4934706;29;20830;-51
2023/03/19 04:57:54;;;;;;;0.50;0.50;;;;;;;7.30;100.00;100012.81;4934972;28;20483;-51
2023/03/19 05:00:20;;;;;;;0.90;0.90;;;;;;;7.39;100.00;100011.72;4935176;28;20483;-50
2023/03/19 05:02:47;;;;;;;2.93;1.00;;;;;;;7.47;100.00;100012.44;4931628;28;20547;-50
2023/03/19 05:05:13;;;;;;;2.00;1.20;;;;;;;7.43;100.00;100010.78;4933516;28;20452;-49
2023/03/19 05:07:41;;;;;;;0.70;0.60;;;;;;;7.57;100.00;100011.38;4915849;28;20460;-49
2023/03/19 05:10:08;;;;;;;1.80;1.27;;;;;;;7.42;100.00;100007.28;4929912;28;20476;-49
2023/03/19 05:12:35;;;;;;;0.70;0.60;;;;;;;7.29;100.00;100005.78;4922100;29;20520;-57
2023/03/19 05:15:04;;;;;;;3.23;1.23;;;;;;;7.48;100.00;100018.63;4917429;29;20457;-49
2023/03/19 05:17:31;;;;;;;1.10;0.60;;;;;;;7.57;100.00;100026.38;4927684;28;20857;-51
2023/03/19 05:19:58;;;;;;;0.80;0.80;;;;;;;7.48;100.00;100022.13;4925269;28;20477;-49
2023/03/19 05:22:25;;;;;;;0.40;0.40;;;;;;;7.63;100.00;100023.59;4924105;28;20559;-51
2023/03/19 05:24:51;;;;;;;1.77;1.50;;;;;;;7.57;100.00;100031.66;4926901;28;20460;-49
2023/03/19 05:27:17;;;;;;;1.23;1.23;;;;;;;7.70;100.00;100030.50;4922948;29;20488;-49
2023/03/19 05:29:44;;;;;;;0.60;0.60;;;;;;;7.62;100.00;100041.22;4931194;28;20476;-50
2023/03/19 05:32:10;;;;;;;0.83;0.73;;;;;;;7.57;100.00;100048.41;4923978;28;20510;-49
2023/03/19 05:34:37;;;;;;;1.60;1.50;;;;;;;7.50;100.00;100041.47;4931210;28;20464;-49
2023/03/19 05:37:04;;;;;;;1.13;0.87;;;;;;;7.56;100.00;100045.78;4930398;29;20456;-49
2023/03/19 05:39:30;;;;;;;2.60;1.40;;;;;;;7.50;100.00;100038.81;4934005;28;20556;-51
2023/03/19 05:41:57;;;;;;;1.07;0.90;;;;;;;7.65;100.00;100045.56;4934266;29;20456;-49
2023/03/19 05:44:23;;;;;;;1.43;0.60;;;;;;;7.61;100.00;100052.72;4934336;29;20452;-49
2023/03/19 05:46:51;;;;;;;0.60;0.60;;;;;;;7.66;100.00;100052.59;4930147;28;20471;-49
2023/03/19 05:49:17;;;;;;;1.17;0.60;;;;;;;7.48;100.00;100050.34;4921866;29;20595;-49
2023/03/19 05:51:44;;;;;;;0.53;0.53;;;;;;;7.50;100.00;100053.81;4926539;29;20456;-49
2023/03/19 05:54:10;;;;;;;3.10;1.93;;;;;;;7.54;100.00;100055.50;4931573;28;20496;-49
2023/03/19 05:56:36;;;;;;;0.80;0.77;;;;;;;7.33;100.00;100057.69;4923733;29;20977;-48
2023/03/19 05:59:03;;;;;;;1.53;0.60;;;;;;;7.38;100.00;100053.16;4922679;29;20487;-49
2023/03/19 06:01:29;;;;;;;0.70;0.60;;;;;;;7.39;100.00;100051.38;4924668;29;20985;-49
2023/03/19 06:03:56;;;;;;;2.67;1.27;;;;;;;7.41;100.00;100055.78;4923093;29;20460;-49
2023/03/19 06:06:23;;;;;;;46.63;1.67;;;;;;;7.52;100.00;100057.31;4923501;28;20504;-51
2023/03/19 06:08:49;;;;;;;3.33;0.93;;;;;;;7.59;100.00;100069.53;4925555;28;20477;-48
2023/03/19 06:11:16;;;;;;;1.23;0.97;;;;;;;7.68;100.00;100064.94;4915584;28;20523;-48
2023/03/19 06:13:42;;;;;;;2.30;0.80;;;;;;;7.73;100.00;100065.69;4915510;29;20503;-50
2023/03/19 06:16:09;;;;;;;2.83;1.83;;;;;;;7.70;100.00;100062.25;4922404;29;21203;-49
2023/03/19 06:18:36;;;;;;;0.67;0.67;;;;;;;7.84;100.00;100057.53;4929076;28;20452;-48
2023/03/19 06:21:03;;;;;;;1.00;1.00;;;;;;;7.91;100.00;100060.91;4923532;29;20461;-48
2023/03/19 06:23:29;;;;;;;0.63;0.63;;;;;;;7.99;100.00;100056.34;4917806;28;20534;-48
2023/03/19 06:25:56;;;;;;;0.90;0.80;;;;;;;8.11;100.00;100064.00;4925888;28;20456;-48
2023/03/19 06:28:22;;;;;;;1.43;0.60;;;;;;;8.15;100.00;100062.16;4930516;29;20497;-49
2023/03/19 06:30:49;;;;;;;0.70;0.70;;;;;;;8.19;100.00;100075.28;4933705;28;20460;-48
2023/03/19 06:33:15;;;;;;;2.30;1.00;;;;;;;8.23;100.00;100076.97;4932102;28;20496;-48
2023/03/19 06:35:42;;;;;;;0.83;0.83;;;;;;;8.34;100.00;100082.03;4933462;28;20551;-48
2023/03/19 06:38:08;;;;;;;1.00;0.83;;;;;;;8.37;100.00;100076.69;4933536;28;20809;-48
2023/03/19 06:40:35;;;;;;;1.07;1.00;;;;;;;8.28;100.00;100069.78;4925615;28;20537;-48
2023/03/19 06:43:01;;;;;;;1.13;1.03;;;;;;;8.44;100.00;100077.41;4931925;28;20449;-48
2023/03/19 06:45:28;;;;;;;0.90;0.70;;;;;;;8.53;100.00;100074.56;4922843;28;20469;-48
2023/03/19 06:47:54;;;;;;;1.00;1.00;;;;;;;8.64;100.00;100082.25;4927315;29;20492;-48
2023/03/19 06:50:21;;;;;;;0.87;0.87;;;;;;;8.73;100.00;100089.97;4922103;29;20895;-49
2023/03/19 06:52:48;;;;;;;1.73;1.63;;;;;;;8.82;100.00;100090.63;4931478;28;20484;-48
2023/03/19 06:55:14;;;;;;;1.70;1.60;;;;;;;8.84;100.00;100090.56;4926119;28;20497;-48
2023/03/19 06:57:49;;;;;;;1.20;1.20;;;;;;;8.97;100.00;100089.34;4919945;28;20489;-48
2023/03/19 07:00:17;;;;;;;3.43;1.30;;;;;;;9.10;100.00;100092.56;4916079;29;20489;-48
2023/03/19 07:02:44;;;;;;;0.80;0.77;;;;;;;9.09;100.00;100096.13;4933093;29;20476;-49
2023/03/19 07:05:10;;;;;;;2.63;1.77;;;;;;;9.10;100.00;100090.78;4931871;28;20917;-48
2023/03/19 07:07:37;;;;;;;1.00;0.80;;;;;;;9.19;100.00;100092.34;4921363;28;20464;-48
2023/03/19 07:10:04;;;;;;;0.87;0.87;;;;;;;9.22;100.00;100089.59;4932880;28;20483;-48
2023/03/19 07:12:30;;;;;;;3.50;1.47;;;;;;;9.37;100.00;100089.19;4927616;28;20833;-48
2023/03/19 07:14:56;;;;;;;2.60;1.13;;;;;;;9.48;100.00;100084.47;4932755;29;20460;-50
2023/03/19 07:17:24;;;;;;;7.73;2.20;;;;;;;9.54;100.00;100094.03;4932712;29;20463;-49
2023/03/19 07:19:50;;;;;;;2.30;2.10;;;;;;;9.64;100.00;100094.66;4920893;28;20488;-49
2023/03/19 07:22:17;;;;;;;1.47;1.37;;;;;;;9.58;100.00;100108.06;4932701;28;20958;-49
2023/03/19 07:24:43;;;;;;;70.23;3.20;;;;;;;9.66;100.00;100103.44;4932704;29;20452;-48
2023/03/19 07:27:10;;;;;;;3.17;2.40;;;;;;;9.73;100.00;100113.84;4932792;28;20475;-48
2023/03/19 07:29:37;;;;;;;2.40;2.20;;;;;;;9.80;100.00;100110.09;4932365;28;21012;-48
2023/03/19 07:32:03;;;;;;;4.33;3.70;;;;;;;9.89;100.00;100116.06;4932476;28;20456;-48
2023/03/19 07:34:30;;;;;;;1.90;1.67;;;;;;;10.01;100.00;100113.06;4922040;28;21067;-49
2023/03/19 07:36:57;;;;;;;3.47;3.17;;;;;;;10.06;100.00;100117.31;4932642;29;20456;-48
2023/03/19 07:39:23;;;;;;;1.87;1.73;;;;;;;10.10;100.00;100115.44;4929760;28;20487;-48
2023/03/19 07:41:50;;;;;;;1.77;1.67;;;;;;;10.15;100.00;100110.00;4915341;28;20992;-49
2023/03/19 07:44:16;;;;;;;6.93;2.37;;;;;;;10.21;100.00;100113.38;4928364;28;20940;-48
2023/03/19 07:46:43;;;;;;;3.90;3.57;;;;;;;10.27;100.00;100112.31;4927765;28;20448;-47
2023/03/19 07:49:09;;;;;;;2.00;1.90;;;;;;;10.29;100.00;100116.69;4932323;28;20479;-48
2023/03/19 07:51:36;;;;;;;2.93;2.83;;;;;;;10.37;100.00;100121.75;4932470;29;20458;-48
2023/03/19 07:54:02;;;;;;;3.03;2.87;;;;;;;10.46;100.00;100118.81;4932290;28;20492;-48
2023/03/19 07:56:29;;;;;;;3.63;3.03;;;;;;;10.53;100.00;100119.47;4932433;28;20448;-48
2023/03/19 07:58:55;;;;;;;2.97;2.77;;;;;;;10.96;100.00;100113.66;4921610;29;20492;-49
2023/03/19 08:01:22;;;;;;;15.90;3.40;;;;;;;10.83;99.90;100115.88;4932118;28;20452;-48
2023/03/19 08:03:48;;;;;;;2.47;2.27;;;;;;;10.94;100.00;100113.72;4928105;28;20565;-50
2023/03/19 08:06:14;;;;;;;4.30;2.40;;;;;;;10.89;100.00;100114.78;4923149;28;20940;-48
2023/03/19 08:08:41;;;;;;;1.90;1.80;;;;;;;10.96;99.86;100117.22;4928847;28;20472;-48
2023/03/19 08:11:07;;;;;;;1.33;1.23;;;;;;;11.06;99.37;100119.53;4915477;28;20955;-49
2023/03/19 08:13:34;;;;;;;4.73;1.80;;;;;;;11.26;99.04;100114.44;4931491;28;20566;-50
2023/03/19 08:16:00;;;;;;;2.47;2.27;;;;;;;11.30;97.43;100110.75;4928992;28;20457;-48
2023/03/19 08:18:27;;;;;;;1.43;1.30;;;;;;;11.49;98.04;100116.28;4932627;29;20538;-49
2023/03/19 08:20:53;;;;;;;1.57;1.37;;;;;;;11.86;97.17;100121.19;4921298;28;20796;-49
2023/03/19 08:23:20;;;;;;;3.07;2.87;;;;;;;11.76;96.31;100122.41;4925047;28;20460;-49
2023/03/19 08:25:47;;;;;;;3.67;2.63;;;;;;;11.81;96.85;100120.50;4922645;29;20864;-48
2023/03/19 08:28:14;;;;;;;1.87;1.77;;;;;;;11.83;96.77;100114.19;4916872;28;20461;-49
2023/03/19 08:30:40;;;;;;;2.20;2.00;;;;;;;11.83;97.46;100116.00;4922800;28;20528;-50
2023/03/19 08:33:07;;;;;;;1.83;1.73;;;;;;;11.88;97.10;100106.03;4932639;28;20487;-50
2023/03/19 08:35:34;;;;;;;2.57;2.20;;;;;;;12.06;96.88;100105.38;4923032;29;20461;-49
2023/03/19 08:38:00;;;;;;;8.53;3.47;;;;;;;12.13;95.54;100103.31;4925344;29;20945;-49
2023/03/19 08:40:27;;;;;;;4.00;2.43;;;;;;;12.13;95.62;100104.19;4923986;28;20473;-49
2023/03/19 08:42:55;;;;;;;1.93;1.10;;;;;;;12.33;95.25;100111.41;4918144;29;20468;-50
2023/03/19 08:45:22;;;;;;;8.07;1.63;;;;;;;12.46;94.59;100114.47;4920654;29;20518;-49
2023/03/19 08:47:49;;;;;;;2.73;2.53;;;;;;;12.51;94.85;100115.19;4928501;28;20975;-50
2023/03/19 08:50:16;;;;;;;3.80;1.70;;;;;;;12.51;94.80;100122.31;4932898;28;20567;-50
2023/03/19 08:52:43;;;;;;;2.60;2.20;;;;;;;12.43;93.87;100118.13;4923178;28;20470;-50
2023/03/19 08:55:10;;;;;;;2.47;2.37;;;;;;;12.57;94.25;100122.91;4927422;29;20487;-50
2023/03/19 08:57:36;;;;;;;5.80;1.63;;;;;;;12.66;93.85;100124.38;4928655;28;20461;-49
2023/03/19 09:00:04;;;;;;;1.90;1.80;;;;;;;12.53;94.10;100121.31;4919213;28;20480;-49
2023/03/19 09:02:31;;;;;;;3.10;1.63;;;;;;;12.61;93.91;100127.22;4927860;28;20463;-52
2023/03/19 09:04:57;;;;;;;1.50;1.40;;;;;;;12.70;94.07;100124.16;4934683;29;20448;-49
2023/03/19 09:07:24;;;;;;;1.73;1.60;;;;;;;12.73;92.81;100118.72;4927486;29;20511;-50
2023/03/19 09:09:50;;;;;;;2.93;2.67;;;;;;;13.15;92.56;100133.03;4934534;29;20510;-49
2023/03/19 09:12:17;;;;;;;2.57;1.80;;;;;;;12.90;92.70;100130.53;4928225;28;20464;-48
2023/03/19 09:14:44;;;;;;;5.03;2.10;;;;;;;13.03;92.43;100129.97;4918387;29;20496;-49
2023/03/19 09:17:12;;;;;;;2.97;2.10;;;;;;;13.05;92.60;100140.56;4930297;29;20476;-50
2023/03/19 09:19:39;;;;;;;6.13;2.70;;;;;;;13.08;92.70;100136.91;4920785;28;20477;-50
2023/03/19 09:22:06;;;;;;;12.80;1.27;;;;;;;12.98;92.31;100139.94;4934477;29;20460;-49
2023/03/19 09:24:32;;;;;;;1.10;1.00;;;;;;;12.86;91.93;100136.88;4930674;28;20464;-51
2023/03/19 09:26:59;;;;;;;1.63;1.53;;;;;;;12.60;92.34;100141.47;4919420;28;20808;-50
2023/03/19 09:29:25;;;;;;;2.10;2.00;;;;;;;12.71;91.33;100143.72;4921208;28;20499;-51
2023/03/19 09:31:52;;;;;;;2.07;1.87;;;;;;;12.82;92.34;100145.94;4926065;28;21089;-49
2023/03/19 09:34:18;;;;;;;9.83;3.00;;;;;;;12.76;93.08;100152.41;4921861;28;20493;-51
2023/03/19 09:36:45;;;;;;;1.30;1.23;;;;;;;12.93;92.26;100147.25;4925084;28;21004;-50
2023/03/19 09:39:11;;;;;;;5.50;2.10;;;;;;;13.22;93.61;100148.75;4928395;29;20480;-51
2023/03/19 09:41:58;;;;;;;1.87;1.77;;;;;;;13.58;90.67;100153.50;4934163;28;20456;-51
2023/03/19 09:44:42;;;;;;;2.37;2.03;;;;;;;13.49;89.86;100157.41;4934262;28;20632;-49
2023/03/19 09:47:27;;;;;;;3.90;1.83;;;;;;;13.30;90.81;100149.31;4934368;28;20815;-49
2023/03/19 09:49:57;;;;;;;8.73;2.07;;;;;;;13.72;89.29;100148.41;4912860;28;20468;-50
2023/03/19 09:52:46;;;;;;;1.80;1.67;;;;;;;13.49;90.04;100149.41;4934231;28;20457;-49
2023/03/19 09:55:30;;;;;;;1.27;0.93;;;;;;;13.71;89.47;100159.19;4934215;28;21035;-49
2023/03/19 09:57:57;;;;;;;1.10;1.00;;;;;;;14.01;89.22;100154.28;4911121;29;20522;-50
2023/03/19 10:00:27;;;;;;;3.13;1.93;;;;;;;13.98;88.84;100149.94;4932466;29;20553;-50
2023/03/19 10:03:19;;;;;;;9.00;1.27;;;;;;;13.98;88.18;100149.94;4934216;29;20844;-50
2023/03/19 10:05:57;;;;;;;2.63;1.53;;;;;;;13.86;87.21;100146.00;4928604;29;20457;-50
2023/03/19 10:08:41;;;;;;;4.47;1.27;;;;;;;13.63;87.83;100149.69;4928178;29;20459;-49
2023/03/19 10:11:29;;;;;;;0.90;0.90;;;;;;;13.86;87.61;100159.38;4931965;29;21136;-50
2023/03/19 10:14:17;;;;;;;7.70;1.50;;;;;;;13.98;87.18;100157.06;4933117;28;20499;-49
2023/03/19 10:16:46;;;;;;;1.60;1.50;;;;;;;14.12;87.53;100158.22;4933687;29;20452;-49
2023/03/19 10:19:17;;;;;;;1.20;1.10;;;;;;;14.46;85.60;100156.66;4933558;29;21005;-50
2023/03/19 10:21:50;;;;;;;1.47;1.37;;;;;;;14.68;85.28;100157.41;4933919;29;20803;-50
2023/03/19 10:24:30;;;;;;;0.87;0.87;;;;;;;14.96;83.87;100167.66;4933877;29;20797;-49
2023/03/19 10:27:04;;;;;;;3.30;2.07;;;;;;;14.87;82.76;100169.91;4933562;28;20484;-50
2023/03/19 10:29:30;;;;;;;1.30;1.10;;;;;;;14.60;84.37;100166.72;4933360;28;20471;-49
2023/03/19 10:32:20;;;;;;;2.90;2.70;;;;;;;14.69;83.59;100166.31;4933560;28;20529;-50
2023/03/19 10:34:49;;;;;;;1.87;1.20;;;;;;;14.59;85.48;100170.34;4932796;28;20524;-49
2023/03/19 10:37:16;;;;;;;1.70;1.60;;;;;;;14.77;85.60;100172.13;4933604;28;20471;-49
2023/03/19 10:39:44;;;;;;;1.47;1.37;;;;;;;14.63;84.59;100162.09;4933201;29;20511;-49
2023/03/19 10:42:25;;;;;;;5.43;2.53;;;;;;;14.87;84.24;100170.75;4933355;29;20452;-50
2023/03/19 10:45:22;;;;;;;1.20;1.07;;;;;;;14.69;84.43;100174.34;4933455;28;20452;-50
2023/03/19 10:47:50;;;;;;;1.00;0.90;;;;;;;14.64;83.61;100168.31;4933229;28;20452;-50
2023/03/19 10:50:28;;;;;;;1.70;1.30;;;;;;;14.67;84.54;100173.53;4932088;28;20534;-49
2023/03/19 10:53:07;;;;;;;2.20;1.30;;;;;;;14.53;83.79;100168.84;4933308;28;20474;-51
2023/03/19 10:55:33;;;;;;;2.33;2.13;;;;;;;14.80;84.03;100167.53;4932950;28;20535;-50
2023/03/19 10:58:15;;;;;;;2.10;1.13;;;;;;;14.38;87.25;100174.84;4933258;29;20452;-50
2023/03/19 11:00:45;;;;;;;4.07;1.53;;;;;;;14.40;88.03;100181.88;4926885;29;20490;-51
2023/03/19 11:03:32;;;;;;;2.40;1.90;;;;;;;14.79;89.11;100179.16;4928558;28;20559;-52
2023/03/19 11:06:37;;;;;;;2.43;2.30;;;;;;;14.60;88.22;100178.28;4925775;28;20879;-52
2023/03/19 11:09:06;;;;;;;1.37;1.27;;;;;;;14.86;87.29;100178.88;4951416;28;20476;-52
2023/03/19 11:11:52;;;;;;;2.87;2.67;;;;;;;14.75;86.86;100174.88;4927814;28;20469;-51
2023/03/19 11:14:24;;;;;;;1.60;1.50;;;;;;;14.93;85.10;100175.81;4912463;29;21071;-52
2023/03/19 11:17:05;;;;;;;4.70;1.07;;;;;;;14.99;84.98;100178.22;4921008;28;20844;-52
2023/03/19 11:19:41;;;;;;;1.47;1.37;;;;;;;14.92;83.89;100176.75;4932795;29;20477;-52
2023/03/19 11:22:11;;;;;;;1.33;1.23;;;;;;;14.89;85.53;100174.22;4932999;29;20460;-52
2023/03/19 11:24:39;;;;;;;12.20;1.50;;;;;;;15.04;85.18;100181.50;4932878;28;20502;-52
2023/03/19 11:27:08;;;;;;;1.53;1.43;;;;;;;15.20;83.78;100178.09;4932870;28;20552;-52
2023/03/19 11:29:43;;;;;;;1.13;1.03;;;;;;;15.38;83.89;100183.41;4932422;28;20538;-52
2023/03/19 11:32:20;;;;;;;8.00;2.03;;;;;;;15.60;83.32;100177.84;4926317;28;20464;-52